Time;durP1;ratioP1;P1;durP2;ratioP2;P2;SDS_P1;SDS_P2;PMS_P1;PMS_P2;Temp;Humidity;BMP_temperature;BMP_pressure;BME280_temperature;BME280_humidity;BME280_pressure;Samples;Min_cycle;Max_cycle;Signal;HPM_P1;HPM_P2
2021/04/11 00:00:39;;;;;;;1.27;0.97;;;;;;;;;;5032513;28;20514;-76
2021/04/11 00:03:06;;;;;;;2.10;1.23;;;;;;;;;;5030053;28;20701;-74
2021/04/11 00:05:33;;;;;;;1.30;1.20;;;;;;;;;;5020919;28;20497;-75
2021/04/11 00:08:00;;;;;;;1.33;1.20;;;;;;;;;;5032162;28;20470;-73
2021/04/11 00:10:31;;;;;;;2.70;0.93;;;;;;;;;;5032064;28;20477;-76
2021/04/11 00:12:58;;;;;;;1.50;1.40;;;;;;;;;;5029117;28;20475;-77
2021/04/11 00:15:24;;;;;;;1.37;1.00;;;;;;;;;;5032033;28;20854;-76
2021/04/11 00:17:50;;;;;;;2.10;1.03;;;;;;;;;;5031284;28;20442;-72
2021/04/11 00:20:16;;;;;;;1.50;0.90;;;;;;;;;;5032277;28;20526;-73
2021/04/11 00:22:43;;;;;;;2.90;1.40;;;;;;;;;;5031644;28;20893;-79
2021/04/11 00:25:11;;;;;;;4.90;1.30;;;;;;;;;;5032316;28;20938;-72
2021/04/11 00:27:37;;;;;;;1.37;0.90;;;;;;;;;;5031843;28;20514;-72
2021/04/11 00:30:04;;;;;;;1.43;0.90;;;;;;;;;;5031880;28;20466;-74
2021/04/11 00:32:30;;;;;;;1.60;1.50;;;;;;;;;;5031679;28;20431;-75
2021/04/11 00:34:56;;;;;;;1.27;1.17;;;;;;;;;;5032014;28;20793;-75
2021/04/11 00:37:23;;;;;;;1.33;1.23;;;;;;;;;;5029197;28;20955;-80
2021/04/11 00:39:49;;;;;;;1.93;0.83;;;;;;;;;;5012884;28;20448;-81
2021/04/11 00:42:24;;;;;;;2.90;1.30;;;;;;;;;;5031646;28;20792;-75
2021/04/11 00:44:50;;;;;;;1.63;1.27;;;;;;;;;;5030758;28;20439;-72
2021/04/11 00:47:17;;;;;;;1.20;1.10;;;;;;;;;;5031078;28;20432;-72
2021/04/11 00:49:46;;;;;;;1.93;1.40;;;;;;;;;;5031582;28;20962;-73
2021/04/11 00:52:14;;;;;;;1.63;1.43;;;;;;;;;;5030556;28;20769;-75
2021/04/11 00:54:40;;;;;;;2.90;1.47;;;;;;;;;;5031979;28;20491;-77
2021/04/11 00:57:07;;;;;;;1.40;1.30;;;;;;;;;;5031369;28;20924;-74
2021/04/11 00:59:33;;;;;;;1.33;1.23;;;;;;;;;;5014091;28;20473;-73
2021/04/11 01:01:59;;;;;;;1.10;0.90;;;;;;;;;;5030098;28;20490;-72
2021/04/11 01:04:26;;;;;;;1.27;1.03;;;;;;;;;;5031404;28;20440;-76
2021/04/11 01:06:53;;;;;;;2.20;1.07;;;;;;;;;;5030815;28;20475;-80
2021/04/11 01:09:22;;;;;;;2.20;1.23;;;;;;;;;;5031428;28;20841;-77
2021/04/11 01:11:48;;;;;;;3.30;1.60;;;;;;;;;;5031064;28;20511;-83
2021/04/11 01:14:15;;;;;;;1.20;1.00;;;;;;;;;;5031839;28;20533;-76
2021/04/11 01:16:41;;;;;;;1.13;1.03;;;;;;;;;;5032003;28;20945;-78
2021/04/11 01:19:08;;;;;;;1.57;1.03;;;;;;;;;;5034358;28;20448;-76
2021/04/11 01:21:49;;;;;;;1.87;1.07;;;;;;;;;;5029026;28;20456;-73
2021/04/11 01:24:17;;;;;;;1.53;1.30;;;;;;;;;;5030567;28;20792;-74
2021/04/11 01:26:44;;;;;;;3.77;1.70;;;;;;;;;;5030286;28;20423;-78
2021/04/11 01:29:11;;;;;;;2.00;1.50;;;;;;;;;;5030265;28;20434;-77
2021/04/11 01:31:37;;;;;;;1.90;1.63;;;;;;;;;;5030545;28;20419;-75
2021/04/11 01:34:05;;;;;;;1.90;1.40;;;;;;;;;;5030519;28;20476;-74
2021/04/11 01:36:32;;;;;;;1.43;1.03;;;;;;;;;;5030247;28;20946;-73
2021/04/11 01:39:01;;;;;;;1.60;1.50;;;;;;;;;;5028214;28;20462;-81
2021/04/11 01:41:27;;;;;;;1.03;1.00;;;;;;;;;;5029461;28;20443;-74
2021/04/11 01:43:54;;;;;;;1.40;1.13;;;;;;;;;;5030471;28;20435;-76
2021/04/11 01:46:21;;;;;;;1.73;1.13;;;;;;;;;;5030350;28;20464;-78
2021/04/11 01:48:47;;;;;;;1.67;1.20;;;;;;;;;;5030458;28;20527;-72
2021/04/11 01:51:14;;;;;;;1.47;1.20;;;;;;;;;;5030781;28;20515;-78
2021/04/11 01:53:41;;;;;;;2.57;1.17;;;;;;;;;;5030819;28;20479;-72
2021/04/11 01:56:07;;;;;;;3.10;1.60;;;;;;;;;;5030790;28;20922;-74
2021/04/11 01:58:35;;;;;;;5.23;1.10;;;;;;;;;;5030111;28;21004;-73
2021/04/11 02:01:12;;;;;;;3.33;1.27;;;;;;;;;;5012278;28;20459;-75
2021/04/11 02:03:38;;;;;;;2.83;1.73;;;;;;;;;;5029935;28;20435;-81
2021/04/11 02:06:06;;;;;;;1.30;1.20;;;;;;;;;;5029398;28;20475;-74
2021/04/11 02:08:33;;;;;;;1.20;1.10;;;;;;;;;;5029916;28;20455;-73
2021/04/11 02:10:59;;;;;;;2.17;1.37;;;;;;;;;;5030478;28;20447;-78
2021/04/11 02:13:29;;;;;;;1.73;1.00;;;;;;;;;;5029376;28;20510;-82
2021/04/11 02:15:57;;;;;;;1.23;1.13;;;;;;;;;;5030287;28;20776;-73
2021/04/11 02:18:24;;;;;;;2.47;1.53;;;;;;;;;;5028549;28;20532;-74
2021/04/11 02:20:51;;;;;;;1.73;1.20;;;;;;;;;;5029461;28;20423;-77
2021/04/11 02:23:18;;;;;;;1.13;1.00;;;;;;;;;;5029160;28;20439;-73
2021/04/11 02:25:46;;;;;;;1.20;1.00;;;;;;;;;;5012214;28;20447;-75
2021/04/11 02:28:12;;;;;;;1.40;1.20;;;;;;;;;;5029952;28;20435;-73
2021/04/11 02:30:47;;;;;;;1.37;1.23;;;;;;;;;;5030155;28;20459;-75
2021/04/11 02:33:13;;;;;;;1.40;1.13;;;;;;;;;;5029184;28;20469;-78
2021/04/11 02:35:39;;;;;;;1.60;1.17;;;;;;;;;;5029119;28;20649;-78
2021/04/11 02:38:06;;;;;;;2.60;1.40;;;;;;;;;;5029109;28;20995;-74
2021/04/11 02:40:34;;;;;;;1.73;1.27;;;;;;;;;;5029117;28;20456;-73
2021/04/11 02:43:01;;;;;;;1.50;1.10;;;;;;;;;;5029426;28;20433;-82
2021/04/11 02:45:29;;;;;;;1.10;1.00;;;;;;;;;;5029551;28;20455;-76
2021/04/11 02:47:55;;;;;;;2.47;1.50;;;;;;;;;;5029535;28;20442;-74
2021/04/11 02:50:23;;;;;;;1.80;1.43;;;;;;;;;;5028637;28;20441;-81
2021/04/11 02:52:53;;;;;;;1.83;1.60;;;;;;;;;;5028484;28;20440;-73
2021/04/11 02:55:19;;;;;;;1.70;1.50;;;;;;;;;;5028372;28;20471;-72
2021/04/11 02:57:45;;;;;;;2.87;1.50;;;;;;;;;;5028342;28;20435;-74
2021/04/11 03:00:15;;;;;;;2.00;1.57;;;;;;;;;;5001588;28;20773;-75
2021/04/11 03:02:41;;;;;;;2.20;1.30;;;;;;;;;;5029026;28;20436;-74
2021/04/11 03:05:07;;;;;;;3.40;1.67;;;;;;;;;;5030140;28;20863;-73
2021/04/11 03:07:39;;;;;;;3.30;1.80;;;;;;;;;;5029870;28;20450;-73
2021/04/11 03:10:07;;;;;;;1.43;1.33;;;;;;;;;;5033296;28;20435;-81
2021/04/11 03:12:33;;;;;;;1.50;1.20;;;;;;;;;;5034411;28;20440;-77
2021/04/11 03:14:59;;;;;;;1.47;1.37;;;;;;;;;;5030900;28;20866;-77
2021/04/11 03:17:26;;;;;;;2.37;1.60;;;;;;;;;;5028210;28;20647;-76
2021/04/11 03:19:55;;;;;;;1.60;1.20;;;;;;;;;;5029832;28;20439;-78
2021/04/11 03:22:21;;;;;;;2.60;1.70;;;;;;;;;;5028759;28;20522;-73
2021/04/11 03:24:48;;;;;;;1.40;1.20;;;;;;;;;;5028733;28;20439;-72
2021/04/11 03:27:17;;;;;;;1.77;1.60;;;;;;;;;;5029037;28;20546;-74
2021/04/11 03:30:03;;;;;;;1.33;1.07;;;;;;;;;;5002415;28;20799;-75
2021/04/11 03:32:31;;;;;;;1.47;1.27;;;;;;;;;;5027898;28;20976;-73
2021/04/11 03:34:58;;;;;;;1.27;1.17;;;;;;;;;;5028867;28;20459;-78
2021/04/11 03:37:26;;;;;;;2.70;1.20;;;;;;;;;;5000813;28;20451;-76
2021/04/11 03:39:54;;;;;;;1.97;1.10;;;;;;;;;;5026160;28;20449;-83
2021/04/11 03:42:28;;;;;;;0.87;0.80;;;;;;;;;;5029079;28;20519;-82
2021/04/11 03:44:54;;;;;;;3.03;1.67;;;;;;;;;;5028725;28;20427;-73
2021/04/11 03:47:24;;;;;;;3.50;1.50;;;;;;;;;;5022921;28;20450;-82
2021/04/11 03:50:11;;;;;;;1.67;1.30;;;;;;;;;;5029190;28;20470;-78
2021/04/11 03:52:41;;;;;;;2.20;1.40;;;;;;;;;;5027806;28;20942;-73
2021/04/11 03:55:09;;;;;;;2.00;1.80;;;;;;;;;;5028652;28;20441;-78
2021/04/11 03:57:50;;;;;;;1.53;1.20;;;;;;;;;;5028358;28;20447;-75
2021/04/11 04:00:24;;;;;;;2.20;1.13;;;;;;;;;;5029229;28;20435;-76
2021/04/11 04:02:51;;;;;;;1.70;1.27;;;;;;;;;;5028679;28;20998;-76
2021/04/11 04:05:20;;;;;;;4.00;1.40;;;;;;;;;;5032504;28;20486;-75
2021/04/11 04:07:51;;;;;;;1.40;1.10;;;;;;;;;;5031441;28;20485;-76
2021/04/11 04:10:18;;;;;;;1.83;1.63;;;;;;;;;;5032792;28;21010;-76
2021/04/11 04:12:50;;;;;;;1.60;1.17;;;;;;;;;;5031465;28;20430;-74
2021/04/11 04:15:35;;;;;;;1.70;1.40;;;;;;;;;;5033241;28;20442;-79
2021/04/11 04:18:04;;;;;;;1.37;1.27;;;;;;;;;;5032524;28;20434;-74
2021/04/11 04:20:30;;;;;;;2.37;1.60;;;;;;;;;;5031678;28;20489;-83
2021/04/11 04:22:59;;;;;;;1.63;1.53;;;;;;;;;;5032002;28;20597;-82
2021/04/11 04:25:25;;;;;;;1.23;1.13;;;;;;;;;;5031755;28;20549;-87
2021/04/11 04:27:51;;;;;;;2.70;1.77;;;;;;;;;;5032093;28;20586;-74
2021/04/11 04:30:20;;;;;;;3.03;1.63;;;;;;;;;;5032115;28;20435;-79
2021/04/11 04:32:45;;;;;;;6.30;2.10;;;;;;;;;;5032040;28;20908;-75
2021/04/11 04:35:21;;;;;;;2.93;2.70;;;;;;;;;;5031918;28;20541;-77
2021/04/11 04:37:47;;;;;;;2.50;2.30;;;;;;;;;;5031023;28;20461;-73
2021/04/11 04:40:32;;;;;;;5.30;2.27;;;;;;;;;;5032000;28;20506;-73
2021/04/11 04:42:59;;;;;;;3.23;2.10;;;;;;;;;;5031699;28;20534;-74
2021/04/11 04:45:28;;;;;;;2.53;2.30;;;;;;;;;;5030709;28;20518;-81
2021/04/11 04:47:57;;;;;;;1.93;1.70;;;;;;;;;;5031437;28;20531;-76
2021/04/11 04:50:25;;;;;;;2.13;1.90;;;;;;;;;;5031853;28;20996;-80
2021/04/11 04:53:10;;;;;;;3.63;2.20;;;;;;;;;;5028146;28;20447;-79
2021/04/11 04:55:38;;;;;;;2.37;2.17;;;;;;;;;;5032134;28;20453;-75
2021/04/11 04:58:10;;;;;;;2.57;2.37;;;;;;;;;;5031529;28;20430;-73
2021/04/11 05:00:43;;;;;;;3.40;2.60;;;;;;;;;;5034044;28;20439;-74
2021/04/11 05:03:33;;;;;;;3.13;2.30;;;;;;;;;;5033724;28;20441;-74
2021/04/11 05:06:05;;;;;;;4.50;3.00;;;;;;;;;;5030809;28;20529;-75
2021/04/11 05:08:33;;;;;;;2.90;2.50;;;;;;;;;;5030929;28;20423;-75
2021/04/11 05:11:05;;;;;;;3.13;2.90;;;;;;;;;;5027633;28;20496;-71
2021/04/11 05:13:34;;;;;;;3.37;2.80;;;;;;;;;;5028828;28;20475;-71
2021/04/11 05:16:04;;;;;;;3.10;2.80;;;;;;;;;;5016761;28;20530;-75
2021/04/11 05:18:39;;;;;;;4.13;3.23;;;;;;;;;;5000621;28;20445;-77
2021/04/11 05:21:14;;;;;;;5.43;2.83;;;;;;;;;;5031858;28;20438;-72
2021/04/11 05:23:40;;;;;;;3.23;2.93;;;;;;;;;;5030314;28;20846;-81
2021/04/11 05:26:06;;;;;;;4.57;3.20;;;;;;;;;;5030301;28;20921;-82
2021/04/11 05:28:41;;;;;;;3.17;2.87;;;;;;;;;;5014482;28;20426;-74
2021/04/11 05:31:10;;;;;;;4.43;3.60;;;;;;;;;;5002051;28;20438;-74
2021/04/11 05:33:36;;;;;;;4.30;3.30;;;;;;;;;;5030489;28;20467;-79
2021/04/11 05:36:25;;;;;;;6.07;3.50;;;;;;;;;;5030185;28;20472;-73
2021/04/11 05:38:51;;;;;;;5.40;3.40;;;;;;;;;;5029734;28;20910;-74
2021/04/11 05:41:22;;;;;;;5.63;3.70;;;;;;;;;;5028377;28;20478;-78
2021/04/11 05:43:53;;;;;;;6.13;3.70;;;;;;;;;;5030589;28;20427;-78
2021/04/11 05:46:23;;;;;;;9.47;3.83;;;;;;;;;;5030825;28;20454;-81
2021/04/11 05:48:50;;;;;;;5.23;3.60;;;;;;;;;;5030911;28;20519;-74
2021/04/11 05:51:16;;;;;;;5.47;4.40;;;;;;;;;;5031252;28;20443;-84
2021/04/11 05:53:46;;;;;;;5.20;3.00;;;;;;;;;;5032953;28;20807;-84
2021/04/11 05:56:14;;;;;;;3.40;3.10;;;;;;;;;;5033689;28;20423;-76
2021/04/11 05:58:46;;;;;;;6.70;3.80;;;;;;;;;;5033340;28;20442;-77
2021/04/11 06:01:14;;;;;;;4.80;3.63;;;;;;;;;;5031051;28;20439;-83
2021/04/11 06:03:50;;;;;;;7.93;3.23;;;;;;;;;;5014962;28;20450;-81
2021/04/11 06:06:19;;;;;;;4.87;3.00;;;;;;;;;;5032212;28;20475;-79
2021/04/11 06:08:50;;;;;;;3.30;3.00;;;;;;;;;;5032605;28;20428;-76
2021/04/11 06:11:26;;;;;;;5.33;3.97;;;;;;;;;;5032391;28;20510;-75
2021/04/11 06:13:58;;;;;;;4.40;3.63;;;;;;;;;;5032660;28;20517;-74
2021/04/11 06:16:26;;;;;;;5.40;4.03;;;;;;;;;;5032544;28;20921;-76
2021/04/11 06:18:53;;;;;;;5.03;3.43;;;;;;;;;;5032460;28;20798;-78
2021/04/11 06:21:25;;;;;;;3.50;3.20;;;;;;;;;;5032316;28;20412;-83
2021/04/11 06:23:56;;;;;;;3.97;3.50;;;;;;;;;;5031876;28;20531;-80
2021/04/11 06:26:35;;;;;;;5.73;3.30;;;;;;;;;;5031704;28;20427;-76
2021/04/11 06:29:05;;;;;;;3.30;3.00;;;;;;;;;;5014495;28;20770;-83
2021/04/11 06:31:40;;;;;;;3.03;2.73;;;;;;;;;;5011372;28;20925;-76
2021/04/11 06:34:26;;;;;;;4.60;3.57;;;;;;;;;;5027345;28;20483;-73
2021/04/11 06:36:54;;;;;;;3.90;2.40;;;;;;;;;;5029191;28;20462;-72
2021/04/11 06:39:25;;;;;;;3.00;2.80;;;;;;;;;;5027670;28;20475;-80
2021/04/11 06:42:09;;;;;;;4.80;2.77;;;;;;;;;;5030917;28;20539;-81
2021/04/11 06:44:58;;;;;;;12.60;2.77;;;;;;;;;;5031356;28;20442;-77
2021/04/11 06:47:24;;;;;;;3.30;2.40;;;;;;;;;;5023984;28;20427;-74
2021/04/11 06:50:01;;;;;;;3.57;2.27;;;;;;;;;;5030244;28;20443;-74
2021/04/11 06:52:27;;;;;;;2.80;2.60;;;;;;;;;;5032133;28;20447;-74
2021/04/11 06:54:59;;;;;;;3.40;2.07;;;;;;;;;;5032438;28;20958;-77
2021/04/11 06:57:44;;;;;;;2.80;2.20;;;;;;;;;;5029687;28;20941;-76
2021/04/11 07:00:26;;;;;;;1.90;1.80;;;;;;;;;;5028492;28;20848;-74
2021/04/11 07:02:58;;;;;;;4.07;2.33;;;;;;;;;;5028228;28;20435;-78
2021/04/11 07:05:30;;;;;;;3.57;2.30;;;;;;;;;;5004225;28;20915;-78
2021/04/11 07:08:02;;;;;;;5.07;3.23;;;;;;;;;;5028206;28;20762;-75
2021/04/11 07:10:35;;;;;;;3.67;3.37;;;;;;;;;;5027453;28;20459;-80
2021/04/11 07:13:29;;;;;;;4.67;3.63;;;;;;;;;;5027755;28;20974;-72
2021/04/11 07:16:06;;;;;;;3.83;3.53;;;;;;;;;;5016691;28;20446;-76
2021/04/11 07:18:51;;;;;;;4.47;3.70;;;;;;;;;;5028886;28;20430;-78
2021/04/11 07:21:27;;;;;;;4.47;3.90;;;;;;;;;;5459068;23;20925;-76
2021/04/11 07:24:10;;;;;;;3.90;3.43;;;;;;;;;;5028857;28;20498;-83
2021/04/11 07:26:49;;;;;;;4.00;3.60;;;;;;;;;;5034155;28;20960;-79
2021/04/11 07:29:34;;;;;;;4.20;3.80;;;;;;;;;;5035240;28;20431;-76
2021/04/11 07:32:08;;;;;;;4.13;3.27;;;;;;;;;;5035153;28;20424;-80
2021/04/11 07:34:34;;;;;;;5.27;3.73;;;;;;;;;;5035431;28;20986;-82
2021/04/11 07:37:26;;;;;;;2.23;1.80;;;;;;;;;;5034953;28;20446;-83
2021/04/11 07:39:53;;;;;;;2.70;2.00;;;;;;;;;;5000343;28;20454;-85
2021/04/11 07:42:38;;;;;;;2.57;2.20;;;;;;;;;;5039715;28;20522;-77
2021/04/11 07:45:13;;;;;;;1.73;1.40;;;;;;;;;;5037824;28;20454;-80
2021/04/11 07:47:42;;;;;;;4.37;1.50;;;;;;;;;;5040322;28;20525;-75
2021/04/11 07:50:24;;;;;;;1.43;1.20;;;;;;;;;;5038952;28;20466;-78
2021/04/11 07:53:09;;;;;;;1.50;1.40;;;;;;;;;;5031059;28;20522;-84
2021/04/11 07:55:41;;;;;;;2.73;1.43;;;;;;;;;;5038550;28;20461;-73
2021/04/11 07:58:22;;;;;;;1.67;1.10;;;;;;;;;;5039831;28;20793;-81
2021/04/11 08:00:48;;;;;;;1.93;1.50;;;;;;;;;;5038067;28;20944;-74
2021/04/11 08:03:32;;;;;;;2.53;1.40;;;;;;;;;;5039431;28;20472;-73
2021/04/11 08:06:19;;;;;;;1.40;1.27;;;;;;;;;;5037691;28;20454;-77
2021/04/11 08:09:02;;;;;;;1.70;1.03;;;;;;;;;;5007851;28;20835;-81
2021/04/11 08:11:46;;;;;;;7.30;1.47;;;;;;;;;;5038263;28;20474;-81
2021/04/11 08:14:21;;;;;;;2.60;1.27;;;;;;;;;;5038671;28;20483;-77
2021/04/11 08:17:19;;;;;;;1.33;1.03;;;;;;;;;;5038554;28;20533;-83
2021/04/11 08:20:04;;;;;;;2.60;1.20;;;;;;;;;;4990422;28;20832;-80
2021/04/11 08:22:42;;;;;;;1.43;1.20;;;;;;;;;;5031695;28;20467;-73
2021/04/11 08:25:11;;;;;;;1.43;1.33;;;;;;;;;;5031643;28;20436;-74
2021/04/11 08:27:37;;;;;;;1.07;1.00;;;;;;;;;;5032040;28;20444;-74
2021/04/11 08:30:12;;;;;;;1.80;1.43;;;;;;;;;;5032375;28;20440;-83
2021/04/11 08:32:41;;;;;;;2.73;0.93;;;;;;;;;;5032179;28;20546;-77
2021/04/11 08:35:13;;;;;;;1.90;1.07;;;;;;;;;;5031753;28;20545;-83
2021/04/11 08:37:45;;;;;;;3.07;0.90;;;;;;;;;;5031903;28;20501;-75
2021/04/11 08:40:21;;;;;;;1.33;0.90;;;;;;;;;;5032148;28;20447;-72
2021/04/11 08:42:47;;;;;;;6.67;1.20;;;;;;;;;;5033868;28;20460;-75
2021/04/11 08:45:15;;;;;;;1.00;1.00;;;;;;;;;;5034687;28;20432;-75
2021/04/11 08:47:41;;;;;;;2.73;1.23;;;;;;;;;;5037162;28;20460;-74
2021/04/11 08:50:24;;;;;;;1.63;0.90;;;;;;;;;;5032135;28;20497;-74
2021/04/11 08:53:09;;;;;;;4.00;1.30;;;;;;;;;;5033829;28;20427;-76
2021/04/11 08:55:49;;;;;;;2.60;0.80;;;;;;;;;;5016230;28;20458;-75
2021/04/11 08:58:15;;;;;;;1.43;0.93;;;;;;;;;;5032999;28;20518;-74
2021/04/11 09:00:55;;;;;;;1.10;0.80;;;;;;;;;;5034899;28;20447;-77
2021/04/11 09:03:39;;;;;;;1.10;0.80;;;;;;;;;;5034800;28;20809;-80
2021/04/11 09:06:11;;;;;;;2.43;1.17;;;;;;;;;;5034110;28;20423;-74
2021/04/11 09:08:40;;;;;;;1.93;1.20;;;;;;;;;;5034457;28;20404;-79
2021/04/11 09:11:17;;;;;;;1.03;0.93;;;;;;;;;;5034447;28;20906;-79
2021/04/11 09:16:55;;;;;;;1.33;0.90;;;;;;;;;;4940293;23;21094;-79
2021/04/11 09:19:24;;;;;;;7.70;1.20;;;;;;;;;;4933570;29;20428;-78
2021/04/11 09:22:09;;;;;;;1.77;1.50;;;;;;;;;;4940234;29;20424;-81
2021/04/11 09:24:56;;;;;;;1.57;1.03;;;;;;;;;;4941692;29;20833;-73
2021/04/11 09:27:40;;;;;;;0.80;0.73;;;;;;;;;;4921199;29;20832;-77
2021/04/11 09:30:15;;;;;;;1.73;0.87;;;;;;;;;;4936487;29;20515;-79
2021/04/11 09:32:50;;;;;;;1.53;1.33;;;;;;;;;;4936299;29;20899;-81
2021/04/11 09:35:16;;;;;;;1.20;1.00;;;;;;;;;;4936996;29;20440;-82
2021/04/11 09:38:01;;;;;;;1.20;0.77;;;;;;;;;;4936867;29;20427;-77
2021/04/11 09:40:45;;;;;;;1.67;1.00;;;;;;;;;;4937072;29;20424;-75
2021/04/11 09:43:16;;;;;;;2.07;1.33;;;;;;;;;;4934974;29;20423;-74
2021/04/11 09:45:42;;;;;;;1.70;1.10;;;;;;;;;;4925438;29;20883;-76
2021/04/11 09:48:08;;;;;;;1.30;1.20;;;;;;;;;;4929979;29;20455;-80
2021/04/11 09:50:34;;;;;;;2.00;1.40;;;;;;;;;;4930614;29;20496;-74
2021/04/11 09:53:19;;;;;;;1.23;1.13;;;;;;;;;;4927383;29;20479;-73
2021/04/11 09:55:46;;;;;;;2.03;1.03;;;;;;;;;;4928424;29;20428;-71
2021/04/11 09:58:24;;;;;;;0.83;0.80;;;;;;;;;;4929716;29;20439;-72
2021/04/11 10:00:59;;;;;;;2.90;1.27;;;;;;;;;;4905469;29;20773;-75
2021/04/11 10:03:43;;;;;;;1.27;1.17;;;;;;;;;;4924257;29;20524;-77
2021/04/11 10:06:41;;;;;;;3.33;1.63;;;;;;;;;;5599326;23;20546;-77
2021/04/11 10:09:25;;;;;;;2.70;1.67;;;;;;;;;;4909921;29;20884;-74
2021/04/11 10:12:07;;;;;;;1.77;1.50;;;;;;;;;;4915735;29;20437;-76
2021/04/11 10:14:33;;;;;;;2.80;1.17;;;;;;;;;;4916705;29;20932;-77
2021/04/11 10:17:06;;;;;;;4.17;1.30;;;;;;;;;;4916679;29;20445;-75
2021/04/11 10:19:50;;;;;;;1.90;1.30;;;;;;;;;;4916495;29;20429;-76
2021/04/11 10:22:19;;;;;;;1.70;1.13;;;;;;;;;;4915533;29;20493;-75
2021/04/11 10:24:45;;;;;;;1.60;1.10;;;;;;;;;;4916097;29;20456;-75
2021/04/11 10:27:19;;;;;;;1.60;0.90;;;;;;;;;;4912446;29;20460;-75
2021/04/11 10:29:46;;;;;;;3.83;1.33;;;;;;;;;;4911655;29;20477;-73
2021/04/11 10:32:15;;;;;;;1.23;0.93;;;;;;;;;;4912020;29;20524;-73
2021/04/11 10:34:44;;;;;;;2.50;1.47;;;;;;;;;;4912188;29;20836;-73
2021/04/11 10:37:13;;;;;;;5.70;1.40;;;;;;;;;;4913271;29;20437;-77
2021/04/11 10:40:12;;;;;;;1.80;0.90;;;;;;;;;;4913125;29;20569;-75
2021/04/11 10:42:41;;;;;;;2.53;1.70;;;;;;;;;;4915313;29;20453;-75
2021/04/11 10:45:16;;;;;;;2.70;1.27;;;;;;;;;;4916222;29;20960;-74
2021/04/11 10:47:47;;;;;;;2.83;1.10;;;;;;;;;;4916113;29;20431;-74
2021/04/11 10:50:27;;;;;;;1.43;1.00;;;;;;;;;;4916371;29;20845;-75
2021/04/11 10:55:50;;;;;;;2.30;1.77;;;;;;;;;;5342375;23;20496;-74
2021/04/11 10:58:34;;;;;;;2.60;1.10;;;;;;;;;;4970070;28;20813;-77
2021/04/11 11:01:00;;;;;;;1.83;1.23;;;;;;;;;;4973420;28;20714;-77
2021/04/11 11:03:42;;;;;;;3.47;1.33;;;;;;;;;;4973422;28;20944;-76
2021/04/11 11:06:18;;;;;;;3.17;1.47;;;;;;;;;;4973133;28;20418;-76
2021/04/11 11:09:03;;;;;;;2.90;1.83;;;;;;;;;;4973244;28;20454;-78
2021/04/11 11:11:35;;;;;;;2.00;1.60;;;;;;;;;;4973083;28;20778;-76
2021/04/11 11:14:09;;;;;;;1.73;1.43;;;;;;;;;;4977067;28;20825;-75
2021/04/11 11:16:41;;;;;;;3.40;1.90;;;;;;;;;;4977236;28;20488;-76
2021/04/11 11:19:13;;;;;;;3.87;1.17;;;;;;;;;;4977415;28;20505;-79
2021/04/11 11:21:48;;;;;;;2.23;1.37;;;;;;;;;;4977202;28;20440;-76
2021/04/11 11:24:33;;;;;;;1.70;1.60;;;;;;;;;;4977300;28;20441;-77
2021/04/11 11:26:59;;;;;;;2.03;1.47;;;;;;;;;;4976570;28;20415;-78
2021/04/11 11:29:34;;;;;;;2.00;1.43;;;;;;;;;;4959732;28;20434;-77
2021/04/11 11:32:03;;;;;;;2.20;1.43;;;;;;;;;;4977234;28;20425;-78
2021/04/11 11:34:38;;;;;;;1.30;1.10;;;;;;;;;;4977382;28;20465;-77
2021/04/11 11:37:18;;;;;;;2.30;1.50;;;;;;;;;;4977309;28;20514;-80
2021/04/11 11:39:50;;;;;;;3.47;1.60;;;;;;;;;;4976975;28;20477;-79
2021/04/11 11:42:16;;;;;;;1.87;1.30;;;;;;;;;;4976344;28;20430;-76
2021/04/11 11:44:52;;;;;;;5.67;1.90;;;;;;;;;;4976976;28;20498;-79
2021/04/11 11:47:34;;;;;;;1.50;1.10;;;;;;;;;;4976639;28;20696;-78
2021/04/11 11:50:17;;;;;;;1.50;1.40;;;;;;;;;;4976891;28;20422;-80
2021/04/11 11:52:54;;;;;;;1.57;1.43;;;;;;;;;;4977026;28;20824;-77
2021/04/11 11:55:20;;;;;;;2.20;1.20;;;;;;;;;;4976363;28;20445;-78
2021/04/11 11:57:57;;;;;;;1.63;1.30;;;;;;;;;;4976806;28;20469;-77
2021/04/11 12:00:26;;;;;;;1.70;1.43;;;;;;;;;;4977427;28;20437;-76
2021/04/11 12:03:10;;;;;;;1.27;1.13;;;;;;;;;;4977235;28;20789;-80
2021/04/11 12:05:40;;;;;;;1.20;1.10;;;;;;;;;;4976846;28;20419;-75
2021/04/11 12:08:17;;;;;;;2.27;1.23;;;;;;;;;;4976913;28;20415;-79
2021/04/11 12:11:02;;;;;;;1.83;0.90;;;;;;;;;;4976487;28;20437;-74
2021/04/11 12:13:33;;;;;;;1.97;1.20;;;;;;;;;;4976606;28;20481;-75
2021/04/11 12:16:06;;;;;;;4.10;1.00;;;;;;;;;;4976683;28;20836;-77
2021/04/11 12:18:35;;;;;;;1.37;1.00;;;;;;;;;;4976838;28;20490;-76
2021/04/11 12:21:08;;;;;;;1.43;1.00;;;;;;;;;;4976676;28;20428;-77
2021/04/11 12:23:40;;;;;;;1.40;1.30;;;;;;;;;;4975903;28;20454;-79
2021/04/11 12:26:08;;;;;;;1.23;0.93;;;;;;;;;;4976370;28;20996;-76
2021/04/11 12:28:34;;;;;;;3.10;1.23;;;;;;;;;;4976377;28;20422;-77
2021/04/11 12:31:11;;;;;;;1.27;1.00;;;;;;;;;;4976827;28;20454;-78
2021/04/11 12:33:58;;;;;;;1.90;1.23;;;;;;;;;;4976373;28;20466;-75
2021/04/11 12:36:44;;;;;;;2.37;0.97;;;;;;;;;;4976681;28;20418;-77
2021/04/11 12:39:21;;;;;;;2.10;1.03;;;;;;;;;;4960298;28;20525;-75
2021/04/11 12:41:48;;;;;;;1.83;1.13;;;;;;;;;;4975908;28;20432;-79
2021/04/11 12:44:14;;;;;;;3.67;1.30;;;;;;;;;;4976458;28;20415;-76
2021/04/11 12:46:43;;;;;;;1.17;0.90;;;;;;;;;;4976564;28;20419;-78
2021/04/11 12:49:22;;;;;;;1.30;1.20;;;;;;;;;;4972758;28;20435;-79
2021/04/11 12:51:48;;;;;;;2.53;1.10;;;;;;;;;;4958342;28;20445;-77
2021/04/11 12:54:17;;;;;;;1.60;1.27;;;;;;;;;;4975137;28;21050;-75
2021/04/11 12:56:45;;;;;;;1.87;1.00;;;;;;;;;;4975611;28;20469;-80
2021/04/11 12:59:11;;;;;;;0.93;0.80;;;;;;;;;;4975383;28;20430;-77
2021/04/11 13:01:42;;;;;;;2.10;1.40;;;;;;;;;;4974083;28;20457;-78
2021/04/11 13:04:20;;;;;;;1.27;1.17;;;;;;;;;;4968375;28;20466;-78
2021/04/11 13:06:55;;;;;;;1.67;1.57;;;;;;;;;;4957715;28;20786;-75
2021/04/11 13:09:28;;;;;;;1.27;1.17;;;;;;;;;;4954143;28;20423;-76
2021/04/11 13:11:57;;;;;;;1.50;1.40;;;;;;;;;;4959183;28;20455;-75
2021/04/11 13:15:02;;;;;;;1.70;1.23;;;;;;;;;;4956685;28;20491;-74
2021/04/11 13:17:31;;;;;;;1.30;1.03;;;;;;;;;;4861742;29;20850;-74
2021/04/11 13:20:02;;;;;;;1.63;0.80;;;;;;;;;;4857666;29;20890;-75
2021/04/11 13:22:33;;;;;;;1.30;1.20;;;;;;;;;;4842754;29;20910;-77
2021/04/11 13:25:13;;;;;;;1.23;1.13;;;;;;;;;;4864849;29;20970;-77
2021/04/11 13:27:47;;;;;;;5.57;1.33;;;;;;;;;;4867461;29;20443;-76
2021/04/11 13:30:21;;;;;;;2.80;1.10;;;;;;;;;;4860561;29;20852;-74
2021/04/11 13:32:56;;;;;;;2.47;1.27;;;;;;;;;;4859366;29;20455;-76
2021/04/11 13:35:29;;;;;;;1.97;1.50;;;;;;;;;;4864780;29;20472;-76
2021/04/11 13:37:59;;;;;;;4.80;1.70;;;;;;;;;;4861440;29;20451;-73
2021/04/11 13:40:28;;;;;;;3.73;1.30;;;;;;;;;;4863466;29;20539;-74
2021/04/11 13:43:01;;;;;;;1.37;0.83;;;;;;;;;;4872762;29;21014;-74
2021/04/11 13:45:27;;;;;;;1.57;1.20;;;;;;;;;;4855745;29;20601;-74
2021/04/11 13:48:11;;;;;;;2.23;0.90;;;;;;;;;;4894300;28;20940;-74
2021/04/11 13:50:45;;;;;;;2.60;1.10;;;;;;;;;;4955730;28;20446;-75
2021/04/11 13:53:11;;;;;;;1.00;0.90;;;;;;;;;;4955834;28;20866;-73
2021/04/11 13:55:47;;;;;;;2.60;0.97;;;;;;;;;;4973361;28;20521;-74
2021/04/11 13:58:19;;;;;;;1.10;0.67;;;;;;;;;;4961397;28;20462;-75
2021/04/11 14:00:45;;;;;;;1.00;0.90;;;;;;;;;;4952669;28;20443;-77
2021/04/11 14:03:22;;;;;;;0.77;0.70;;;;;;;;;;4957926;28;20763;-75
2021/04/11 14:05:56;;;;;;;3.73;1.20;;;;;;;;;;4952927;28;20465;-78
2021/04/11 14:08:41;;;;;;;2.27;1.23;;;;;;;;;;4953595;28;20882;-74
2021/04/11 14:11:21;;;;;;;2.83;1.53;;;;;;;;;;4952174;28;20450;-76
2021/04/11 14:13:54;;;;;;;3.50;2.10;;;;;;;;;;4953576;28;20569;-74
2021/04/11 14:16:23;;;;;;;1.57;1.47;;;;;;;;;;4953488;28;20953;-75
2021/04/11 14:18:49;;;;;;;2.13;1.47;;;;;;;;;;4935423;28;20505;-78
2021/04/11 14:21:24;;;;;;;1.73;1.10;;;;;;;;;;4936314;28;20992;-76
2021/04/11 14:24:08;;;;;;;4.60;1.27;;;;;;;;;;4953902;28;20431;-76
2021/04/11 14:26:41;;;;;;;1.63;1.13;;;;;;;;;;4954684;28;20431;-77
2021/04/11 14:29:14;;;;;;;2.97;1.10;;;;;;;;;;4957216;28;20530;-75
2021/04/11 14:31:45;;;;;;;2.73;1.23;;;;;;;;;;4952780;28;20534;-76
2021/04/11 14:34:21;;;;;;;1.77;1.50;;;;;;;;;;4954880;28;20538;-78
2021/04/11 14:36:50;;;;;;;1.67;1.53;;;;;;;;;;4952369;28;20431;-77
2021/04/11 14:39:19;;;;;;;1.63;1.00;;;;;;;;;;4947690;28;20784;-76
2021/04/11 14:41:54;;;;;;;1.20;0.77;;;;;;;;;;4963981;28;20460;-77
2021/04/11 14:44:50;;;;;;;3.97;1.23;;;;;;;;;;4968400;28;20444;-74
2021/04/11 14:47:24;;;;;;;1.30;0.97;;;;;;;;;;4932582;28;20620;-75
2021/04/11 14:49:50;;;;;;;1.60;1.30;;;;;;;;;;4967335;28;20441;-76
2021/04/11 14:52:19;;;;;;;1.73;1.10;;;;;;;;;;4969443;28;20741;-78
2021/04/11 14:54:50;;;;;;;6.20;1.37;;;;;;;;;;4967953;28;20486;-75
2021/04/11 14:57:39;;;;;;;1.90;1.23;;;;;;;;;;4968566;28;20484;-75
2021/04/11 15:00:07;;;;;;;1.90;1.23;;;;;;;;;;4966094;28;20445;-81
2021/04/11 15:02:50;;;;;;;2.13;0.87;;;;;;;;;;4971520;28;20426;-76
2021/04/11 15:05:26;;;;;;;3.83;1.53;;;;;;;;;;4968206;28;20434;-76
2021/04/11 15:08:04;;;;;;;2.43;1.53;;;;;;;;;;4970837;28;20469;-74
2021/04/11 15:10:34;;;;;;;2.20;1.10;;;;;;;;;;4969684;28;20958;-77
2021/04/11 15:13:13;;;;;;;3.53;1.33;;;;;;;;;;4949926;28;20419;-77
2021/04/11 15:15:42;;;;;;;1.63;1.40;;;;;;;;;;4969298;28;20438;-75
2021/04/11 15:18:27;;;;;;;1.10;1.00;;;;;;;;;;4971645;28;20426;-81
2021/04/11 15:21:12;;;;;;;3.47;1.67;;;;;;;;;;4969397;28;20442;-81